sensor_id;sensor_type;location;lat;lon;timestamp;pressure;altitude;pressure_sealevel;temperature;humidity
42111;BME280;27766;52.174;5.456;2023-04-08T00:01:18;102173.09;;;7.33;100.00
42111;BME280;27766;52.174;5.456;2023-04-08T00:03:45;102175.84;;;7.36;100.00
42111;BME280;27766;52.174;5.456;2023-04-08T00:06:12;102167.94;;;7.33;100.00
42111;BME280;27766;52.174;5.456;2023-04-08T00:08:39;102152.34;;;7.29;100.00
42111;BME280;27766;52.174;5.456;2023-04-08T00:11:06;102172.53;;;7.22;100.00
42111;BME280;27766;52.174;5.456;2023-04-08T00:13:33;102169.72;;;7.17;100.00
42111;BME280;27766;52.174;5.456;2023-04-08T00:16:01;102181.16;;;7.22;100.00
42111;BME280;27766;52.174;5.456;2023-04-08T00:18:29;102184.13;;;7.30;100.00
42111;BME280;27766;52.174;5.456;2023-04-08T00:20:56;102177.31;;;7.31;100.00
42111;BME280;27766;52.174;5.456;2023-04-08T00:23:23;102170.28;;;7.28;100.00
42111;BME280;27766;52.174;5.456;2023-04-08T00:25:50;102182.28;;;7.27;100.00
42111;BME280;27766;52.174;5.456;2023-04-08T00:28:17;102180.56;;;7.28;100.00
42111;BME280;27766;52.174;5.456;2023-04-08T00:30:44;102161.50;;;7.24;100.00
42111;BME280;27766;52.174;5.456;2023-04-08T00:33:11;102182.59;;;7.34;100.00
42111;BME280;27766;52.174;5.456;2023-04-08T00:35:39;102179.22;;;7.35;100.00
42111;BME280;27766;52.174;5.456;2023-04-08T00:38:06;102181.25;;;7.40;100.00
42111;BME280;27766;52.174;5.456;2023-04-08T00:40:34;102176.88;;;7.23;100.00
42111;BME280;27766;52.174;5.456;2023-04-08T00:43:01;102190.25;;;7.32;100.00
42111;BME280;27766;52.174;5.456;2023-04-08T00:45:28;102182.59;;;7.34;100.00
42111;BME280;27766;52.174;5.456;2023-04-08T00:47:56;102186.41;;;7.40;100.00
42111;BME280;27766;52.174;5.456;2023-04-08T00:50:23;102193.56;;;7.46;100.00
42111;BME280;27766;52.174;5.456;2023-04-08T00:52:50;102194.75;;;7.53;100.00
42111;BME280;27766;52.174;5.456;2023-04-08T00:55:17;102190.56;;;7.55;100.00
42111;BME280;27766;52.174;5.456;2023-04-08T00:57:45;102196.47;;;7.52;100.00
42111;BME280;27766;52.174;5.456;2023-04-08T01:00:13;102175.66;;;7.49;100.00
42111;BME280;27766;52.174;5.456;2023-04-08T01:02:50;102192.19;;;7.53;100.00
42111;BME280;27766;52.174;5.456;2023-04-08T01:08:01;102197.75;;;7.60;100.00
42111;BME280;27766;52.174;5.456;2023-04-08T01:10:33;102198.78;;;7.64;100.00
42111;BME280;27766;52.174;5.456;2023-04-08T01:13:04;102201.50;;;7.67;100.00
42111;BME280;27766;52.174;5.456;2023-04-08T01:15:32;102200.31;;;7.60;100.00
42111;BME280;27766;52.174;5.456;2023-04-08T01:18:05;102186.53;;;7.43;100.00
42111;BME280;27766;52.174;5.456;2023-04-08T01:20:33;102199.53;;;7.45;100.00
42111;BME280;27766;52.174;5.456;2023-04-08T01:23:22;102206.28;;;7.43;100.00
42111;BME280;27766;52.174;5.456;2023-04-08T01:25:52;102201.53;;;7.34;100.00
42111;BME280;27766;52.174;5.456;2023-04-08T01:28:22;102198.72;;;7.29;100.00
42111;BME280;27766;52.174;5.456;2023-04-08T01:30:50;102209.50;;;7.39;100.00
42111;BME280;27766;52.174;5.456;2023-04-08T01:33:18;102193.56;;;7.29;100.00
42111;BME280;27766;52.174;5.456;2023-04-08T01:35:46;102212.31;;;7.27;100.00
42111;BME280;27766;52.174;5.456;2023-04-08T01:38:16;102207.41;;;7.32;100.00
42111;BME280;27766;52.174;5.456;2023-04-08T01:40:45;102207.84;;;7.24;100.00
42111;BME280;27766;52.174;5.456;2023-04-08T01:43:15;102215.13;;;7.32;100.00
42111;BME280;27766;52.174;5.456;2023-04-08T01:45:45;102211.09;;;7.20;100.00
42111;BME280;27766;52.174;5.456;2023-04-08T01:48:13;102195.56;;;7.19;100.00
42111;BME280;27766;52.174;5.456;2023-04-08T01:50:42;102215.25;;;7.18;100.00
42111;BME280;27766;52.174;5.456;2023-04-08T01:53:10;102205.28;;;7.24;100.00
42111;BME280;27766;52.174;5.456;2023-04-08T01:55:40;102217.34;;;7.25;100.00
42111;BME280;27766;52.174;5.456;2023-04-08T01:58:11;102215.91;;;7.14;100.00
42111;BME280;27766;52.174;5.456;2023-04-08T02:00:40;102219.88;;;7.24;100.00
42111;BME280;27766;52.174;5.456;2023-04-08T02:03:10;102221.63;;;7.25;100.00
42111;BME280;27766;52.174;5.456;2023-04-08T02:05:39;102206.66;;;7.18;100.00
42111;BME280;27766;52.174;5.456;2023-04-08T02:08:06;102217.84;;;7.18;100.00
42111;BME280;27766;52.174;5.456;2023-04-08T02:10:33;102218.41;;;7.12;100.00
42111;BME280;27766;52.174;5.456;2023-04-08T02:13:01;102195.28;;;6.97;100.00
42111;BME280;27766;52.174;5.456;2023-04-08T02:15:33;102218.22;;;7.09;100.00
42111;BME280;27766;52.174;5.456;2023-04-08T02:18:10;102217.69;;;7.15;100.00
42111;BME280;27766;52.174;5.456;2023-04-08T02:20:43;102230.13;;;7.07;100.00
42111;BME280;27766;52.174;5.456;2023-04-08T02:23:17;102203.81;;;6.96;100.00
42111;BME280;27766;52.174;5.456;2023-04-08T02:25:47;102214.88;;;7.10;100.00
42111;BME280;27766;52.174;5.456;2023-04-08T02:28:16;102220.88;;;7.11;100.00
42111;BME280;27766;52.174;5.456;2023-04-08T02:30:51;102223.78;;;7.17;100.00
42111;BME280;27766;52.174;5.456;2023-04-08T02:33:20;102222.97;;;7.18;100.00
42111;BME280;27766;52.174;5.456;2023-04-08T02:35:49;102229.84;;;7.18;100.00
42111;BME280;27766;52.174;5.456;2023-04-08T02:38:18;102214.94;;;7.12;100.00
42111;BME280;27766;52.174;5.456;2023-04-08T02:40:48;102222.72;;;7.13;100.00
42111;BME280;27766;52.174;5.456;2023-04-08T02:43:15;102230.72;;;7.18;100.00
42111;BME280;27766;52.174;5.456;2023-04-08T02:45:43;102212.91;;;7.06;100.00
42111;BME280;27766;52.174;5.456;2023-04-08T02:48:11;102219.28;;;7.13;100.00
42111;BME280;27766;52.174;5.456;2023-04-08T02:50:38;102232.00;;;7.26;100.00
42111;BME280;27766;52.174;5.456;2023-04-08T02:53:07;102221.22;;;7.17;100.00
42111;BME280;27766;52.174;5.456;2023-04-08T02:55:34;102239.91;;;7.29;100.00
42111;BME280;27766;52.174;5.456;2023-04-08T02:58:01;102233.00;;;7.28;100.00
42111;BME280;27766;52.174;5.456;2023-04-08T03:00:29;102224.00;;;7.05;100.00
42111;BME280;27766;52.174;5.456;2023-04-08T03:02:57;102223.53;;;6.96;100.00
42111;BME280;27766;52.174;5.456;2023-04-08T03:05:25;102230.94;;;7.06;100.00
42111;BME280;27766;52.174;5.456;2023-04-08T03:07:52;102241.59;;;7.12;100.00
42111;BME280;27766;52.174;5.456;2023-04-08T03:10:19;102212.06;;;6.91;100.00
42111;BME280;27766;52.174;5.456;2023-04-08T03:12:46;102248.34;;;7.10;100.00
42111;BME280;27766;52.174;5.456;2023-04-08T03:15:13;102241.06;;;7.03;100.00
42111;BME280;27766;52.174;5.456;2023-04-08T03:17:45;102244.38;;;7.01;100.00
42111;BME280;27766;52.174;5.456;2023-04-08T03:20:12;102245.25;;;7.01;100.00
42111;BME280;27766;52.174;5.456;2023-04-08T03:22:40;102254.03;;;7.05;100.00
42111;BME280;27766;52.174;5.456;2023-04-08T03:25:07;102248.81;;;7.03;100.00
42111;BME280;27766;52.174;5.456;2023-04-08T03:27:35;102238.25;;;6.99;100.00
42111;BME280;27766;52.174;5.456;2023-04-08T03:30:02;102251.91;;;6.97;100.00
42111;BME280;27766;52.174;5.456;2023-04-08T03:32:29;102241.09;;;6.88;100.00
42111;BME280;27766;52.174;5.456;2023-04-08T03:34:56;102253.34;;;6.92;100.00
42111;BME280;27766;52.174;5.456;2023-04-08T03:37:23;102258.13;;;6.86;100.00
42111;BME280;27766;52.174;5.456;2023-04-08T03:39:51;102247.16;;;6.74;100.00
42111;BME280;27766;52.174;5.456;2023-04-08T03:42:19;102250.47;;;6.71;100.00
42111;BME280;27766;52.174;5.456;2023-04-08T03:44:46;102249.31;;;6.66;100.00
42111;BME280;27766;52.174;5.456;2023-04-08T03:47:13;102260.31;;;6.63;100.00
42111;BME280;27766;52.174;5.456;2023-04-08T03:49:40;102245.97;;;6.52;100.00
42111;BME280;27766;52.174;5.456;2023-04-08T03:52:08;102258.03;;;6.53;100.00
42111;BME280;27766;52.174;5.456;2023-04-08T03:54:35;102259.97;;;6.42;100.00
42111;BME280;27766;52.174;5.456;2023-04-08T03:57:02;102266.00;;;6.43;100.00
42111;BME280;27766;52.174;5.456;2023-04-08T03:59:29;102241.06;;;6.12;100.00
42111;BME280;27766;52.174;5.456;2023-04-08T04:01:56;102271.47;;;6.19;100.00
42111;BME280;27766;52.174;5.456;2023-04-08T04:04:23;102276.78;;;6.07;100.00
42111;BME280;27766;52.174;5.456;2023-04-08T04:06:51;102273.47;;;5.95;100.00
42111;BME280;27766;52.174;5.456;2023-04-08T04:09:18;102281.53;;;5.86;100.00
42111;BME280;27766;52.174;5.456;2023-04-08T04:11:45;102286.88;;;5.76;100.00
42111;BME280;27766;52.174;5.456;2023-04-08T04:14:12;102286.31;;;5.66;100.00
42111;BME280;27766;52.174;5.456;2023-04-08T04:16:39;102277.44;;;5.61;100.00
42111;BME280;27766;52.174;5.456;2023-04-08T04:19:07;102291.50;;;5.53;100.00
42111;BME280;27766;52.174;5.456;2023-04-08T04:21:34;102289.47;;;5.34;100.00
42111;BME280;27766;52.174;5.456;2023-04-08T04:24:01;102283.53;;;5.21;100.00
42111;BME280;27766;52.174;5.456;2023-04-08T04:26:28;102295.13;;;5.15;100.00
42111;BME280;27766;52.174;5.456;2023-04-08T04:28:55;102280.69;;;5.03;100.00
42111;BME280;27766;52.174;5.456;2023-04-08T04:31:23;102304.72;;;5.04;100.00
42111;BME280;27766;52.174;5.456;2023-04-08T04:33:54;102301.94;;;4.87;100.00
42111;BME280;27766;52.174;5.456;2023-04-08T04:36:21;102308.63;;;4.85;100.00
42111;BME280;27766;52.174;5.456;2023-04-08T04:38:49;102307.63;;;4.83;100.00
42111;BME280;27766;52.174;5.456;2023-04-08T04:41:17;102314.25;;;4.80;100.00
42111;BME280;27766;52.174;5.456;2023-04-08T04:43:44;102306.16;;;4.60;100.00
42111;BME280;27766;52.174;5.456;2023-04-08T04:46:11;102313.25;;;4.64;100.00
42111;BME280;27766;52.174;5.456;2023-04-08T04:48:39;102321.56;;;4.73;100.00
42111;BME280;27766;52.174;5.456;2023-04-08T04:51:06;102325.19;;;4.77;100.00
42111;BME280;27766;52.174;5.456;2023-04-08T04:53:33;102322.34;;;4.72;100.00
42111;BME280;27766;52.174;5.456;2023-04-08T04:56:00;102318.59;;;4.67;100.00
42111;BME280;27766;52.174;5.456;2023-04-08T04:58:28;102325.50;;;4.68;100.00
42111;BME280;27766;52.174;5.456;2023-04-08T05:00:55;102341.97;;;4.72;100.00
42111;BME280;27766;52.174;5.456;2023-04-08T05:03:23;102342.66;;;4.69;100.00
42111;BME280;27766;52.174;5.456;2023-04-08T05:05:53;102340.50;;;4.62;100.00
42111;BME280;27766;52.174;5.456;2023-04-08T05:08:21;102333.59;;;4.61;100.00
42111;BME280;27766;52.174;5.456;2023-04-08T05:10:48;102346.50;;;4.63;100.00
42111;BME280;27766;52.174;5.456;2023-04-08T05:13:21;102347.41;;;4.63;100.00
42111;BME280;27766;52.174;5.456;2023-04-08T05:15:48;102342.75;;;4.57;100.00
42111;BME280;27766;52.174;5.456;2023-04-08T05:18:15;102360.00;;;4.60;100.00
42111;BME280;27766;52.174;5.456;2023-04-08T05:20:43;102353.69;;;4.55;100.00
42111;BME280;27766;52.174;5.456;2023-04-08T05:23:10;102356.34;;;4.56;100.00
42111;BME280;27766;52.174;5.456;2023-04-08T05:25:39;102364.81;;;4.55;100.00
42111;BME280;27766;52.174;5.456;2023-04-08T05:28:06;102356.25;;;4.55;100.00
42111;BME280;27766;52.174;5.456;2023-04-08T05:30:33;102365.22;;;4.62;100.00
42111;BME280;27766;52.174;5.456;2023-04-08T05:33:01;102361.69;;;4.59;100.00
42111;BME280;27766;52.174;5.456;2023-04-08T05:35:28;102364.13;;;4.58;100.00
42111;BME280;27766;52.174;5.456;2023-04-08T05:37:55;102358.38;;;4.49;100.00
42111;BME280;27766;52.174;5.456;2023-04-08T05:40:23;102368.78;;;4.50;100.00
42111;BME280;27766;52.174;5.456;2023-04-08T05:42:50;102368.88;;;4.52;100.00
42111;BME280;27766;52.174;5.456;2023-04-08T05:45:17;102368.09;;;4.53;100.00
42111;BME280;27766;52.174;5.456;2023-04-08T05:47:44;102368.50;;;4.59;100.00
42111;BME280;27766;52.174;5.456;2023-04-08T05:50:11;102380.63;;;4.62;100.00
42111;BME280;27766;52.174;5.456;2023-04-08T05:52:43;102373.22;;;4.66;100.00
42111;BME280;27766;52.174;5.456;2023-04-08T05:55:11;102368.88;;;4.65;100.00
42111;BME280;27766;52.174;5.456;2023-04-08T05:57:42;102374.16;;;4.67;100.00
42111;BME280;27766;52.174;5.456;2023-04-08T06:00:10;102360.31;;;4.65;100.00
42111;BME280;27766;52.174;5.456;2023-04-08T06:02:37;102383.25;;;4.75;100.00
42111;BME280;27766;52.174;5.456;2023-04-08T06:05:05;102365.34;;;4.63;100.00
42111;BME280;27766;52.174;5.456;2023-04-08T06:07:32;102377.19;;;4.74;100.00
42111;BME280;27766;52.174;5.456;2023-04-08T06:10:00;102381.84;;;4.80;100.00
42111;BME280;27766;52.174;5.456;2023-04-08T06:12:27;102384.91;;;4.88;100.00
42111;BME280;27766;52.174;5.456;2023-04-08T06:14:55;102379.09;;;4.90;100.00
42111;BME280;27766;52.174;5.456;2023-04-08T06:17:22;102379.00;;;5.02;100.00
42111;BME280;27766;52.174;5.456;2023-04-08T06:19:49;102377.84;;;5.11;100.00
42111;BME280;27766;52.174;5.456;2023-04-08T06:22:17;102394.31;;;5.14;100.00
42111;BME280;27766;52.174;5.456;2023-04-08T06:24:46;102394.94;;;5.10;100.00
42111;BME280;27766;52.174;5.456;2023-04-08T06:27:14;102404.31;;;5.23;100.00
42111;BME280;27766;52.174;5.456;2023-04-08T06:29:41;102403.53;;;5.24;100.00
42111;BME280;27766;52.174;5.456;2023-04-08T06:32:09;102406.97;;;5.38;100.00
42111;BME280;27766;52.174;5.456;2023-04-08T06:34:36;102407.66;;;5.35;100.00
42111;BME280;27766;52.174;5.456;2023-04-08T06:37:04;102414.56;;;5.50;100.00
42111;BME280;27766;52.174;5.456;2023-04-08T06:39:32;102424.97;;;5.65;100.00
42111;BME280;27766;52.174;5.456;2023-04-08T06:42:00;102421.97;;;5.72;100.00
42111;BME280;27766;52.174;5.456;2023-04-08T06:44:27;102436.88;;;5.91;100.00
42111;BME280;27766;52.174;5.456;2023-04-08T06:46:54;102430.56;;;5.86;100.00
42111;BME280;27766;52.174;5.456;2023-04-08T06:49:22;102438.38;;;5.88;100.00
42111;BME280;27766;52.174;5.456;2023-04-08T06:51:49;102437.16;;;5.96;100.00
42111;BME280;27766;52.174;5.456;2023-04-08T06:54:17;102443.25;;;5.98;100.00
42111;BME280;27766;52.174;5.456;2023-04-08T06:56:44;102449.59;;;6.16;100.00
42111;BME280;27766;52.174;5.456;2023-04-08T06:59:11;102448.19;;;6.22;100.00
42111;BME280;27766;52.174;5.456;2023-04-08T07:01:38;102445.78;;;6.38;100.00
42111;BME280;27766;52.174;5.456;2023-04-08T07:04:06;102453.34;;;6.50;100.00
42111;BME280;27766;52.174;5.456;2023-04-08T07:06:33;102462.50;;;6.60;100.00
42111;BME280;27766;52.174;5.456;2023-04-08T07:09:00;102457.81;;;6.68;100.00
42111;BME280;27766;52.174;5.456;2023-04-08T07:11:27;102463.53;;;6.77;100.00
42111;BME280;27766;52.174;5.456;2023-04-08T07:13:55;102471.78;;;6.86;100.00
42111;BME280;27766;52.174;5.456;2023-04-08T07:16:22;102478.25;;;6.79;100.00
42111;BME280;27766;52.174;5.456;2023-04-08T07:18:49;102464.31;;;6.76;100.00
42111;BME280;27766;52.174;5.456;2023-04-08T07:21:18;102474.19;;;6.98;100.00
42111;BME280;27766;52.174;5.456;2023-04-08T07:23:45;102481.13;;;7.14;100.00
42111;BME280;27766;52.174;5.456;2023-04-08T07:26:12;102478.13;;;7.21;100.00
42111;BME280;27766;52.174;5.456;2023-04-08T07:28:40;102482.19;;;7.33;100.00
42111;BME280;27766;52.174;5.456;2023-04-08T07:31:12;102487.53;;;7.51;100.00
42111;BME280;27766;52.174;5.456;2023-04-08T07:33:40;102480.94;;;7.41;100.00
42111;BME280;27766;52.174;5.456;2023-04-08T07:39:00;102414.72;;;6.93;100.00
42111;BME280;27766;52.174;5.456;2023-04-08T07:41:28;102498.06;;;7.55;100.00
42111;BME280;27766;52.174;5.456;2023-04-08T07:43:57;102467.63;;;7.33;100.00
42111;BME280;27766;52.174;5.456;2023-04-08T07:46:25;102481.41;;;7.34;100.00
42111;BME280;27766;52.174;5.456;2023-04-08T07:48:52;102439.56;;;7.23;100.00
42111;BME280;27766;52.174;5.456;2023-04-08T07:51:19;102499.78;;;7.55;100.00
42111;BME280;27766;52.174;5.456;2023-04-08T07:53:47;102438.66;;;7.37;100.00
42111;BME280;27766;52.174;5.456;2023-04-08T07:56:14;102492.19;;;7.88;100.00
42111;BME280;27766;52.174;5.456;2023-04-08T07:58:43;102489.38;;;8.00;100.00
42111;BME280;27766;52.174;5.456;2023-04-08T08:01:17;102490.47;;;7.88;100.00
42111;BME280;27766;52.174;5.456;2023-04-08T08:03:47;102510.94;;;8.17;100.00
42111;BME280;27766;52.174;5.456;2023-04-08T08:06:15;102503.19;;;8.17;100.00
42111;BME280;27766;52.174;5.456;2023-04-08T08:08:43;102499.09;;;8.20;100.00
42111;BME280;27766;52.174;5.456;2023-04-08T08:11:10;102502.06;;;8.28;100.00
42111;BME280;27766;52.174;5.456;2023-04-08T08:13:37;102487.19;;;8.39;100.00
42111;BME280;27766;52.174;5.456;2023-04-08T08:16:04;102494.06;;;8.55;100.00
42111;BME280;27766;52.174;5.456;2023-04-08T08:18:35;102494.88;;;8.54;100.00
42111;BME280;27766;52.174;5.456;2023-04-08T08:21:02;102498.34;;;8.54;100.00
42111;BME280;27766;52.174;5.456;2023-04-08T08:23:30;102500.25;;;8.42;100.00
42111;BME280;27766;52.174;5.456;2023-04-08T08:26:08;102511.41;;;8.58;100.00
42111;BME280;27766;52.174;5.456;2023-04-08T08:28:38;102512.78;;;8.84;100.00
42111;BME280;27766;52.174;5.456;2023-04-08T08:31:06;102513.06;;;9.07;100.00
42111;BME280;27766;52.174;5.456;2023-04-08T08:33:33;102517.97;;;9.18;100.00
42111;BME280;27766;52.174;5.456;2023-04-08T08:36:01;102513.97;;;9.07;100.00
42111;BME280;27766;52.174;5.456;2023-04-08T08:38:30;102501.97;;;8.91;100.00
42111;BME280;27766;52.174;5.456;2023-04-08T08:40:58;102520.53;;;8.84;100.00
42111;BME280;27766;52.174;5.456;2023-04-08T08:43:26;102506.81;;;8.85;100.00
42111;BME280;27766;52.174;5.456;2023-04-08T08:45:53;102513.19;;;8.92;100.00
42111;BME280;27766;52.174;5.456;2023-04-08T08:48:21;102513.44;;;8.96;100.00
42111;BME280;27766;52.174;5.456;2023-04-08T08:50:48;102514.63;;;9.03;100.00
42111;BME280;27766;52.174;5.456;2023-04-08T08:53:15;102513.34;;;9.29;100.00
42111;BME280;27766;52.174;5.456;2023-04-08T08:55:43;102517.00;;;9.51;100.00
42111;BME280;27766;52.174;5.456;2023-04-08T08:58:33;102509.19;;;9.68;100.00
42111;BME280;27766;52.174;5.456;2023-04-08T09:01:01;102520.84;;;9.77;100.00
42111;BME280;27766;52.174;5.456;2023-04-08T09:03:28;102514.63;;;9.74;100.00
42111;BME280;27766;52.174;5.456;2023-04-08T09:05:57;102533.16;;;9.47;100.00
42111;BME280;27766;52.174;5.456;2023-04-08T09:11:13;102539.41;;;9.69;100.00
42111;BME280;27766;52.174;5.456;2023-04-08T09:13:41;102533.13;;;9.63;100.00
42111;BME280;27766;52.174;5.456;2023-04-08T09:16:17;102535.66;;;9.80;100.00
42111;BME280;27766;52.174;5.456;2023-04-08T09:18:46;102530.81;;;9.88;100.00
42111;BME280;27766;52.174;5.456;2023-04-08T09:21:16;102531.63;;;10.05;100.00
42111;BME280;27766;52.174;5.456;2023-04-08T09:23:45;102544.69;;;10.26;100.00
42111;BME280;27766;52.174;5.456;2023-04-08T09:26:18;102548.91;;;10.42;100.00
42111;BME280;27766;52.174;5.456;2023-04-08T09:29:08;102551.69;;;10.47;100.00
42111;BME280;27766;52.174;5.456;2023-04-08T09:31:59;102551.03;;;10.51;100.00
42111;BME280;27766;52.174;5.456;2023-04-08T09:34:27;102552.81;;;10.52;100.00
42111;BME280;27766;52.174;5.456;2023-04-08T09:36:55;102545.03;;;10.52;100.00
42111;BME280;27766;52.174;5.456;2023-04-08T09:39:23;102553.91;;;10.57;100.00
42111;BME280;27766;52.174;5.456;2023-04-08T09:41:51;102546.50;;;10.65;100.00
42111;BME280;27766;52.174;5.456;2023-04-08T09:44:20;102557.38;;;10.77;100.00
42111;BME280;27766;52.174;5.456;2023-04-08T09:49:24;102562.56;;;10.97;100.00
42111;BME280;27766;52.174;5.456;2023-04-08T09:52:07;102556.75;;;11.02;100.00
42111;BME280;27766;52.174;5.456;2023-04-08T09:54:43;102554.19;;;10.83;100.00
42111;BME280;27766;52.174;5.456;2023-04-08T09:57:20;102556.91;;;10.86;100.00
42111;BME280;27766;52.174;5.456;2023-04-08T09:59:53;102554.78;;;10.97;100.00
42111;BME280;27766;52.174;5.456;2023-04-08T10:02:31;102546.97;;;10.75;100.00
42111;BME280;27766;52.174;5.456;2023-04-08T10:05:04;102530.63;;;10.76;100.00
42111;BME280;27766;52.174;5.456;2023-04-08T10:07:34;102547.72;;;10.92;100.00
42111;BME280;27766;52.174;5.456;2023-04-08T10:10:02;102547.00;;;10.97;100.00
42111;BME280;27766;52.174;5.456;2023-04-08T10:12:29;102548.47;;;11.11;100.00
42111;BME280;27766;52.174;5.456;2023-04-08T10:15:22;102549.38;;;11.12;100.00
42111;BME280;27766;52.174;5.456;2023-04-08T10:17:54;102545.44;;;11.00;100.00
42111;BME280;27766;52.174;5.456;2023-04-08T10:25:35;102531.56;;;10.98;100.00
42111;BME280;27766;52.174;5.456;2023-04-08T10:33:17;102548.34;;;11.49;100.00
42111;BME280;27766;52.174;5.456;2023-04-08T10:38:21;102538.69;;;11.45;100.00
42111;BME280;27766;52.174;5.456;2023-04-08T10:40:49;102543.31;;;11.52;100.00
42111;BME280;27766;52.174;5.456;2023-04-08T10:43:17;102536.91;;;11.44;100.00
42111;BME280;27766;52.174;5.456;2023-04-08T10:45:44;102544.38;;;11.57;100.00
42111;BME280;27766;52.174;5.456;2023-04-08T10:48:20;102530.25;;;11.71;100.00
42111;BME280;27766;52.174;5.456;2023-04-08T10:50:53;102532.41;;;11.82;100.00
42111;BME280;27766;52.174;5.456;2023-04-08T10:53:33;102536.06;;;11.87;100.00
42111;BME280;27766;52.174;5.456;2023-04-08T10:56:10;102537.97;;;11.91;100.00
42111;BME280;27766;52.174;5.456;2023-04-08T10:58:52;102516.50;;;11.74;100.00
42111;BME280;27766;52.174;5.456;2023-04-08T11:01:20;102533.09;;;11.99;100.00
42111;BME280;27766;52.174;5.456;2023-04-08T11:03:47;102522.53;;;11.96;100.00
42111;BME280;27766;52.174;5.456;2023-04-08T11:06:15;102523.94;;;12.09;100.00
42111;BME280;27766;52.174;5.456;2023-04-08T11:08:44;102524.84;;;12.09;97.87
42111;BME280;27766;52.174;5.456;2023-04-08T11:11:13;102529.28;;;12.12;74.52
42111;BME280;27766;52.174;5.456;2023-04-08T11:13:42;102519.56;;;12.08;85.25
42111;BME280;27766;52.174;5.456;2023-04-08T11:16:20;102517.38;;;12.18;80.55
42111;BME280;27766;52.174;5.456;2023-04-08T11:18:49;102521.56;;;12.38;87.82
42111;BME280;27766;52.174;5.456;2023-04-08T11:21:17;102517.28;;;12.62;94.02
42111;BME280;27766;52.174;5.456;2023-04-08T11:23:44;102509.88;;;12.73;86.16
42111;BME280;27766;52.174;5.456;2023-04-08T11:26:13;102524.56;;;12.97;96.69
42111;BME280;27766;52.174;5.456;2023-04-08T11:28:40;102522.09;;;13.00;83.61
42111;BME280;27766;52.174;5.456;2023-04-08T11:31:08;102526.72;;;13.09;79.60
42111;BME280;27766;52.174;5.456;2023-04-08T11:33:35;102517.78;;;13.26;72.09
42111;BME280;27766;52.174;5.456;2023-04-08T11:36:03;102512.72;;;13.31;83.94
42111;BME280;27766;52.174;5.456;2023-04-08T11:38:30;102535.00;;;13.49;71.20
42111;BME280;27766;52.174;5.456;2023-04-08T11:40:58;102524.09;;;13.60;76.25
42111;BME280;27766;52.174;5.456;2023-04-08T11:43:26;102523.13;;;13.57;63.18
42111;BME280;27766;52.174;5.456;2023-04-08T11:45:54;102526.72;;;13.60;63.74
42111;BME280;27766;52.174;5.456;2023-04-08T11:48:21;102514.09;;;13.45;58.29
42111;BME280;27766;52.174;5.456;2023-04-08T11:51:02;102528.91;;;13.48;57.61
42111;BME280;27766;52.174;5.456;2023-04-08T11:53:30;102526.34;;;13.50;65.90
42111;BME280;27766;52.174;5.456;2023-04-08T11:55:57;102531.72;;;13.28;62.10
42111;BME280;27766;52.174;5.456;2023-04-08T11:58:42;102526.91;;;13.15;60.33
42111;BME280;27766;52.174;5.456;2023-04-08T12:01:09;102514.38;;;13.03;63.94
42111;BME280;27766;52.174;5.456;2023-04-08T12:03:37;102519.19;;;12.92;62.56
42111;BME280;27766;52.174;5.456;2023-04-08T12:06:04;102519.53;;;13.02;58.58
42111;BME280;27766;52.174;5.456;2023-04-08T12:08:33;102523.06;;;13.04;53.71
42111;BME280;27766;52.174;5.456;2023-04-08T12:11:00;102524.56;;;13.21;53.27
42111;BME280;27766;52.174;5.456;2023-04-08T12:13:45;102528.22;;;13.28;51.60
42111;BME280;27766;52.174;5.456;2023-04-08T12:16:14;102526.19;;;13.19;44.28
42111;BME280;27766;52.174;5.456;2023-04-08T12:18:41;102520.56;;;13.33;45.09
42111;BME280;27766;52.174;5.456;2023-04-08T12:21:09;102526.59;;;13.32;46.06
42111;BME280;27766;52.174;5.456;2023-04-08T12:23:37;102525.69;;;13.55;44.43
42111;BME280;27766;52.174;5.456;2023-04-08T12:26:04;102522.41;;;13.61;45.85
42111;BME280;27766;52.174;5.456;2023-04-08T12:28:31;102515.47;;;13.61;48.49
42111;BME280;27766;52.174;5.456;2023-04-08T12:30:58;102517.00;;;13.82;49.52
42111;BME280;27766;52.174;5.456;2023-04-08T12:33:28;102512.31;;;13.99;51.22
42111;BME280;27766;52.174;5.456;2023-04-08T12:35:56;102519.63;;;14.11;53.10
42111;BME280;27766;52.174;5.456;2023-04-08T12:38:25;102518.13;;;13.90;53.12
42111;BME280;27766;52.174;5.456;2023-04-08T12:40:55;102506.78;;;13.88;52.88
42111;BME280;27766;52.174;5.456;2023-04-08T12:43:22;102508.84;;;14.29;55.22
42111;BME280;27766;52.174;5.456;2023-04-08T12:45:50;102506.88;;;14.20;50.78
42111;BME280;27766;52.174;5.456;2023-04-08T12:48:17;102515.78;;;14.00;55.00
42111;BME280;27766;52.174;5.456;2023-04-08T12:50:44;102503.69;;;14.00;55.88
42111;BME280;27766;52.174;5.456;2023-04-08T12:53:13;102513.75;;;13.89;59.56
42111;BME280;27766;52.174;5.456;2023-04-08T12:55:40;102516.06;;;13.80;59.07
42111;BME280;27766;52.174;5.456;2023-04-08T12:58:10;102487.00;;;13.66;54.84
42111;BME280;27766;52.174;5.456;2023-04-08T13:00:37;102493.78;;;13.61;57.18
42111;BME280;27766;52.174;5.456;2023-04-08T13:03:04;102515.16;;;13.80;61.58
42111;BME280;27766;52.174;5.456;2023-04-08T13:05:32;102509.19;;;13.82;60.83
42111;BME280;27766;52.174;5.456;2023-04-08T13:08:05;102514.78;;;13.95;62.32
42111;BME280;27766;52.174;5.456;2023-04-08T13:10:33;102516.88;;;14.06;60.10
42111;BME280;27766;52.174;5.456;2023-04-08T13:13:00;102513.44;;;14.07;60.98
42111;BME280;27766;52.174;5.456;2023-04-08T13:15:27;102511.88;;;14.14;61.76
42111;BME280;27766;52.174;5.456;2023-04-08T13:17:54;102507.56;;;14.15;60.45
42111;BME280;27766;52.174;5.456;2023-04-08T13:20:22;102519.47;;;14.37;61.62